sensor_id;sensor_type;location;lat;lon;timestamp;pressure;altitude;pressure_sealevel;temperature;humidity
25350;BME280;13302;48.796;11.978;2023-04-09T00:00:22;97477.03;;;7.86;38.70
25350;BME280;13302;48.796;11.978;2023-04-09T00:03:09;97476.22;;;7.86;38.90
25350;BME280;13302;48.796;11.978;2023-04-09T00:05:57;97478.47;;;7.83;38.94
25350;BME280;13302;48.796;11.978;2023-04-09T00:08:43;97477.63;;;7.83;38.92
25350;BME280;13302;48.796;11.978;2023-04-09T00:11:31;97475.22;;;7.81;38.79
25350;BME280;13302;48.796;11.978;2023-04-09T00:14:18;97475.53;;;7.80;38.83
25350;BME280;13302;48.796;11.978;2023-04-09T00:17:05;97475.53;;;7.80;39.01
25350;BME280;13302;48.796;11.978;2023-04-09T00:19:52;97475.88;;;7.78;39.14
25350;BME280;13302;48.796;11.978;2023-04-09T00:22:39;97471.16;;;7.79;38.70
25350;BME280;13302;48.796;11.978;2023-04-09T00:25:26;97473.13;;;7.78;38.95
25350;BME280;13302;48.796;11.978;2023-04-09T00:28:14;97471.16;;;7.79;38.98
25350;BME280;13302;48.796;11.978;2023-04-09T00:31:02;97471.47;;;7.77;38.98
25350;BME280;13302;48.796;11.978;2023-04-09T00:33:49;97471.47;;;7.77;38.92
25350;BME280;13302;48.796;11.978;2023-04-09T00:36:37;97462.72;;;7.75;38.96
25350;BME280;13302;48.796;11.978;2023-04-09T00:39:23;97461.91;;;7.75;39.03
25350;BME280;13302;48.796;11.978;2023-04-09T00:42:11;97470.16;;;7.75;38.84
25350;BME280;13302;48.796;11.978;2023-04-09T00:44:58;97467.75;;;7.73;39.07
25350;BME280;13302;48.796;11.978;2023-04-09T00:47:45;97477.13;;;7.72;38.87
25350;BME280;13302;48.796;11.978;2023-04-09T00:50:32;97476.31;;;7.72;38.86
25350;BME280;13302;48.796;11.978;2023-04-09T00:53:19;97479.88;;;7.72;39.00
25350;BME280;13302;48.796;11.978;2023-04-09T00:56:06;97478.25;;;7.71;38.87
25350;BME280;13302;48.796;11.978;2023-04-09T00:58:53;97479.41;;;7.70;39.12
25350;BME280;13302;48.796;11.978;2023-04-09T01:01:41;97473.91;;;7.70;39.27
25350;BME280;13302;48.796;11.978;2023-04-09T01:04:28;97472.41;;;7.64;39.08
25350;BME280;13302;48.796;11.978;2023-04-09T01:07:35;97465.09;;;7.60;39.01
25350;BME280;13302;48.796;11.978;2023-04-09T01:13:28;97468.47;;;7.57;39.33
25350;BME280;13302;48.796;11.978;2023-04-09T01:16:18;97461.84;;;7.58;39.15
25350;BME280;13302;48.796;11.978;2023-04-09T01:19:18;97462.16;;;7.56;39.17
25350;BME280;13302;48.796;11.978;2023-04-09T01:22:28;97455.84;;;7.56;39.24
25350;BME280;13302;48.796;11.978;2023-04-09T01:25:28;97442.91;;;7.56;39.08
25350;BME280;13302;48.796;11.978;2023-04-09T01:28:24;97440.66;;;7.58;39.36
25350;BME280;13302;48.796;11.978;2023-04-09T01:31:16;97447.75;;;7.59;39.25
25350;BME280;13302;48.796;11.978;2023-04-09T01:34:05;97438.38;;;7.60;39.26
25350;BME280;13302;48.796;11.978;2023-04-09T01:36:57;97440.84;;;7.62;39.05
25350;BME280;13302;48.796;11.978;2023-04-09T01:39:45;97453.78;;;7.61;38.63
25350;BME280;13302;48.796;11.978;2023-04-09T01:42:33;97467.03;;;7.59;38.70
25350;BME280;13302;48.796;11.978;2023-04-09T01:45:21;97473.97;;;7.57;38.83
25350;BME280;13302;48.796;11.978;2023-04-09T01:48:09;97476.22;;;7.55;38.62
25350;BME280;13302;48.796;11.978;2023-04-09T01:50:59;97482.66;;;7.50;38.47
25350;BME280;13302;48.796;11.978;2023-04-09T01:53:47;97478.16;;;7.46;38.36
25350;BME280;13302;48.796;11.978;2023-04-09T01:59:28;97478.41;;;7.35;37.88
25350;BME280;13302;48.796;11.978;2023-04-09T02:02:27;97470.25;;;7.30;38.03
25350;BME280;13302;48.796;11.978;2023-04-09T02:05:18;97470.06;;;7.27;37.61
25350;BME280;13302;48.796;11.978;2023-04-09T02:08:11;97468.78;;;7.24;37.83
25350;BME280;13302;48.796;11.978;2023-04-09T02:11:01;97465.03;;;7.20;37.88
25350;BME280;13302;48.796;11.978;2023-04-09T02:13:52;97464.03;;;7.16;37.70
25350;BME280;13302;48.796;11.978;2023-04-09T02:16:40;97477.25;;;7.14;37.26
25350;BME280;13302;48.796;11.978;2023-04-09T02:19:40;97475.28;;;7.06;37.51
25350;BME280;13302;48.796;11.978;2023-04-09T02:22:28;97477.03;;;7.02;37.44
25350;BME280;13302;48.796;11.978;2023-04-09T02:25:15;97479.59;;;6.99;37.03
25350;BME280;13302;48.796;11.978;2023-04-09T02:28:02;97482.44;;;6.93;36.73
25350;BME280;13302;48.796;11.978;2023-04-09T02:30:49;97481.47;;;6.89;36.69
25350;BME280;13302;48.796;11.978;2023-04-09T02:33:36;97482.72;;;6.83;36.58
25350;BME280;13302;48.796;11.978;2023-04-09T02:36:23;97482.31;;;6.76;36.61
25350;BME280;13302;48.796;11.978;2023-04-09T02:39:12;97488.78;;;6.72;36.60
25350;BME280;13302;48.796;11.978;2023-04-09T02:42:00;97492.44;;;6.67;36.44
25350;BME280;13302;48.796;11.978;2023-04-09T02:44:47;97492.84;;;6.61;36.44
25350;BME280;13302;48.796;11.978;2023-04-09T02:47:34;97502.34;;;6.55;36.52
25350;BME280;13302;48.796;11.978;2023-04-09T02:50:21;97495.03;;;6.50;36.54
25350;BME280;13302;48.796;11.978;2023-04-09T02:53:11;97499.53;;;6.46;36.56
25350;BME280;13302;48.796;11.978;2023-04-09T02:55:58;97503.19;;;6.41;36.76
25350;BME280;13302;48.796;11.978;2023-04-09T02:58:45;97503.00;;;6.38;36.52
25350;BME280;13302;48.796;11.978;2023-04-09T03:01:32;97498.13;;;6.35;36.33
25350;BME280;13302;48.796;11.978;2023-04-09T03:04:19;97508.09;;;6.31;36.36
25350;BME280;13302;48.796;11.978;2023-04-09T03:07:06;97497.22;;;6.26;36.50
25350;BME280;13302;48.796;11.978;2023-04-09T03:09:53;97498.97;;;6.22;36.38
25350;BME280;13302;48.796;11.978;2023-04-09T03:12:40;97492.47;;;6.18;36.36
25350;BME280;13302;48.796;11.978;2023-04-09T03:15:30;97493.38;;;6.13;36.30
25350;BME280;13302;48.796;11.978;2023-04-09T03:18:17;97486.84;;;6.09;36.82
25350;BME280;13302;48.796;11.978;2023-04-09T03:21:05;97484.41;;;6.08;36.63
25350;BME280;13302;48.796;11.978;2023-04-09T03:23:55;97481.97;;;6.06;36.94
25350;BME280;13302;48.796;11.978;2023-04-09T03:26:42;97482.28;;;6.05;36.77
25350;BME280;13302;48.796;11.978;2023-04-09T03:29:30;97477.06;;;6.03;36.93
25350;BME280;13302;48.796;11.978;2023-04-09T03:32:17;97471.91;;;6.02;36.61
25350;BME280;13302;48.796;11.978;2023-04-09T03:35:05;97484.00;;;6.00;36.50
25350;BME280;13302;48.796;11.978;2023-04-09T03:37:52;97476.88;;;5.99;36.22
25350;BME280;13302;48.796;11.978;2023-04-09T03:40:40;97471.72;;;5.98;36.38
25350;BME280;13302;48.796;11.978;2023-04-09T03:43:28;97476.69;;;5.96;36.26
25350;BME280;13302;48.796;11.978;2023-04-09T03:46:16;97475.38;;;5.93;36.36
25350;BME280;13302;48.796;11.978;2023-04-09T03:49:06;97475.16;;;5.90;36.29
25350;BME280;13302;48.796;11.978;2023-04-09T03:52:00;97470.28;;;5.87;36.38
25350;BME280;13302;48.796;11.978;2023-04-09T03:54:55;97474.47;;;5.84;36.46
25350;BME280;13302;48.796;11.978;2023-04-09T03:57:44;97469.59;;;5.81;36.41
25350;BME280;13302;48.796;11.978;2023-04-09T04:00:35;97480.03;;;5.79;36.49
25350;BME280;13302;48.796;11.978;2023-04-09T04:03:45;97472.09;;;5.78;36.62
25350;BME280;13302;48.796;11.978;2023-04-09T04:06:42;97476.28;;;5.75;36.59
25350;BME280;13302;48.796;11.978;2023-04-09T04:09:48;97478.53;;;5.73;36.65
25350;BME280;13302;48.796;11.978;2023-04-09T04:12:37;97475.78;;;5.73;36.63
25350;BME280;13302;48.796;11.978;2023-04-09T04:15:29;97478.00;;;5.71;36.79
25350;BME280;13302;48.796;11.978;2023-04-09T04:18:16;97487.34;;;5.70;36.51
25350;BME280;13302;48.796;11.978;2023-04-09T04:21:15;97487.16;;;5.67;36.42
25350;BME280;13302;48.796;11.978;2023-04-09T04:24:06;97496.47;;;5.66;36.34
25350;BME280;13302;48.796;11.978;2023-04-09T04:26:53;97489.97;;;5.62;36.29
25350;BME280;13302;48.796;11.978;2023-04-09T04:29:41;97492.22;;;5.60;36.29
25350;BME280;13302;48.796;11.978;2023-04-09T04:32:55;97493.34;;;5.59;36.38
25350;BME280;13302;48.796;11.978;2023-04-09T04:35:43;97492.84;;;5.57;36.38
25350;BME280;13302;48.796;11.978;2023-04-09T04:38:47;97492.31;;;5.54;36.38
25350;BME280;13302;48.796;11.978;2023-04-09T04:41:46;97494.03;;;5.50;36.61
25350;BME280;13302;48.796;11.978;2023-04-09T04:44:39;97495.16;;;5.49;36.75
25350;BME280;13302;48.796;11.978;2023-04-09T04:47:46;97491.00;;;5.52;37.08
25350;BME280;13302;48.796;11.978;2023-04-09T04:50:33;97504.41;;;5.53;36.87
25350;BME280;13302;48.796;11.978;2023-04-09T04:53:25;97502.78;;;5.52;37.09
25350;BME280;13302;48.796;11.978;2023-04-09T04:56:14;97497.31;;;5.52;37.17
25350;BME280;13302;48.796;11.978;2023-04-09T04:59:28;97509.59;;;5.55;36.76
25350;BME280;13302;48.796;11.978;2023-04-09T05:02:19;97508.78;;;5.54;36.86
25350;BME280;13302;48.796;11.978;2023-04-09T05:05:25;97509.59;;;5.55;37.04
25350;BME280;13302;48.796;11.978;2023-04-09T05:08:15;97505.75;;;5.56;37.01
25350;BME280;13302;48.796;11.978;2023-04-09T05:11:06;97516.09;;;5.59;36.94
25350;BME280;13302;48.796;11.978;2023-04-09T05:13:57;97509.78;;;5.59;37.00
25350;BME280;13302;48.796;11.978;2023-04-09T05:16:44;97511.44;;;5.60;36.70
25350;BME280;13302;48.796;11.978;2023-04-09T05:19:32;97509.78;;;5.59;36.74
25350;BME280;13302;48.796;11.978;2023-04-09T05:22:22;97514.47;;;5.58;37.07
25350;BME280;13302;48.796;11.978;2023-04-09T05:25:09;97513.34;;;5.59;37.19
25350;BME280;13302;48.796;11.978;2023-04-09T05:27:58;97510.59;;;5.59;37.45
25350;BME280;13302;48.796;11.978;2023-04-09T05:30:46;97509.50;;;5.60;37.74
25350;BME280;13302;48.796;11.978;2023-04-09T05:33:34;97517.94;;;5.64;37.61
25350;BME280;13302;48.796;11.978;2023-04-09T05:36:30;97514.56;;;5.67;37.63
25350;BME280;13302;48.796;11.978;2023-04-09T05:39:18;97520.25;;;5.70;37.64
25350;BME280;13302;48.796;11.978;2023-04-09T05:42:05;97518.88;;;5.73;37.87
25350;BME280;13302;48.796;11.978;2023-04-09T05:44:56;97524.56;;;5.76;38.04
25350;BME280;13302;48.796;11.978;2023-04-09T05:47:43;97528.00;;;5.82;38.21
25350;BME280;13302;48.796;11.978;2023-04-09T05:50:36;97516.09;;;5.86;38.23
25350;BME280;13302;48.796;11.978;2023-04-09T05:53:40;97510.53;;;5.91;38.33
25350;BME280;13302;48.796;11.978;2023-04-09T05:56:28;97513.78;;;5.93;38.44
25350;BME280;13302;48.796;11.978;2023-04-09T05:59:16;97509.63;;;5.96;38.46
25350;BME280;13302;48.796;11.978;2023-04-09T06:02:03;97504.66;;;5.98;38.60
25350;BME280;13302;48.796;11.978;2023-04-09T06:04:52;97508.69;;;6.00;38.64
25350;BME280;13302;48.796;11.978;2023-04-09T06:07:39;97516.84;;;6.06;38.49
25350;BME280;13302;48.796;11.978;2023-04-09T06:10:26;97511.53;;;6.09;38.58
25350;BME280;13302;48.796;11.978;2023-04-09T06:13:13;97508.22;;;6.12;38.82
25350;BME280;13302;48.796;11.978;2023-04-09T06:16:03;97513.59;;;6.17;38.75
25350;BME280;13302;48.796;11.978;2023-04-09T06:18:50;97513.78;;;6.21;38.86
25350;BME280;13302;48.796;11.978;2023-04-09T06:21:40;97530.47;;;6.24;38.83
25350;BME280;13302;48.796;11.978;2023-04-09T06:24:27;97535.03;;;6.29;38.70
25350;BME280;13302;48.796;11.978;2023-04-09T06:27:14;97528.13;;;6.31;38.83
25350;BME280;13302;48.796;11.978;2023-04-09T06:30:01;97525.06;;;6.33;39.22
25350;BME280;13302;48.796;11.978;2023-04-09T06:32:49;97528.53;;;6.38;39.36
25350;BME280;13302;48.796;11.978;2023-04-09T06:35:41;97532.78;;;6.44;39.50
25350;BME280;13302;48.796;11.978;2023-04-09T06:38:28;97540.91;;;6.50;39.59
25350;BME280;13302;48.796;11.978;2023-04-09T06:41:15;97536.91;;;6.56;39.79
25350;BME280;13302;48.796;11.978;2023-04-09T06:44:02;97536.81;;;6.61;39.70
25350;BME280;13302;48.796;11.978;2023-04-09T06:46:49;97548.22;;;6.68;39.65
25350;BME280;13302;48.796;11.978;2023-04-09T06:49:37;97542.28;;;6.74;39.62
25350;BME280;13302;48.796;11.978;2023-04-09T06:52:24;97545.28;;;6.86;39.86
25350;BME280;13302;48.796;11.978;2023-04-09T06:55:11;97540.50;;;6.92;39.77
25350;BME280;13302;48.796;11.978;2023-04-09T06:57:58;97545.75;;;7.02;39.63
25350;BME280;13302;48.796;11.978;2023-04-09T07:00:45;97545.00;;;7.10;39.85
25350;BME280;13302;48.796;11.978;2023-04-09T07:03:32;97543.44;;;7.18;40.02
25350;BME280;13302;48.796;11.978;2023-04-09T07:06:19;97548.69;;;7.28;39.72
25350;BME280;13302;48.796;11.978;2023-04-09T07:09:06;97546.84;;;7.37;39.45
25350;BME280;13302;48.796;11.978;2023-04-09T07:11:53;97542.03;;;7.43;39.34
25350;BME280;13302;48.796;11.978;2023-04-09T07:14:41;97552.09;;;7.47;39.38
25350;BME280;13302;48.796;11.978;2023-04-09T07:17:29;97556.16;;;7.50;39.23
25350;BME280;13302;48.796;11.978;2023-04-09T07:20:16;97553.25;;;7.55;39.30
25350;BME280;13302;48.796;11.978;2023-04-09T07:23:03;97560.56;;;7.59;39.40
25350;BME280;13302;48.796;11.978;2023-04-09T07:25:50;97558.34;;;7.61;39.46
25350;BME280;13302;48.796;11.978;2023-04-09T07:28:37;97563.19;;;7.64;39.21
25350;BME280;13302;48.796;11.978;2023-04-09T07:31:24;97568.06;;;7.67;39.34
25350;BME280;13302;48.796;11.978;2023-04-09T07:34:11;97568.59;;;7.69;39.27
25350;BME280;13302;48.796;11.978;2023-04-09T07:36:58;97571.34;;;7.69;39.33
25350;BME280;13302;48.796;11.978;2023-04-09T07:39:46;97573.75;;;7.71;39.35
25350;BME280;13302;48.796;11.978;2023-04-09T07:42:36;97575.09;;;7.73;39.18
25350;BME280;13302;48.796;11.978;2023-04-09T07:45:23;97569.13;;;7.80;39.27
25350;BME280;13302;48.796;11.978;2023-04-09T07:48:11;97562.66;;;7.84;39.42
25350;BME280;13302;48.796;11.978;2023-04-09T07:50:58;97568.03;;;7.90;39.42
25350;BME280;13302;48.796;11.978;2023-04-09T07:53:46;97566.28;;;7.94;39.31
25350;BME280;13302;48.796;11.978;2023-04-09T07:56:33;97567.28;;;7.98;39.19
25350;BME280;13302;48.796;11.978;2023-04-09T07:59:20;97569.06;;;8.02;39.27
25350;BME280;13302;48.796;11.978;2023-04-09T08:02:07;97569.25;;;8.06;39.42
25350;BME280;13302;48.796;11.978;2023-04-09T08:04:54;97568.59;;;8.09;38.83
25350;BME280;13302;48.796;11.978;2023-04-09T08:07:41;97579.19;;;8.15;39.11
25350;BME280;13302;48.796;11.978;2023-04-09T08:10:28;97565.06;;;8.17;39.06
25350;BME280;13302;48.796;11.978;2023-04-09T08:13:15;97569.63;;;8.21;39.16
25350;BME280;13302;48.796;11.978;2023-04-09T08:16:02;97575.00;;;8.26;39.24
25350;BME280;13302;48.796;11.978;2023-04-09T08:18:49;97572.59;;;8.34;39.15
25350;BME280;13302;48.796;11.978;2023-04-09T08:21:38;97566.44;;;8.37;38.91
25350;BME280;13302;48.796;11.978;2023-04-09T08:24:28;97572.63;;;8.42;38.93
25350;BME280;13302;48.796;11.978;2023-04-09T08:27:15;97577.66;;;8.49;39.06
25350;BME280;13302;48.796;11.978;2023-04-09T08:30:04;97580.28;;;8.54;38.94
25350;BME280;13302;48.796;11.978;2023-04-09T08:32:51;97577.41;;;8.59;38.66
25350;BME280;13302;48.796;11.978;2023-04-09T08:35:39;97583.25;;;8.66;38.71
25350;BME280;13302;48.796;11.978;2023-04-09T08:38:27;97576.28;;;8.68;38.82
25350;BME280;13302;48.796;11.978;2023-04-09T08:41:19;97581.97;;;8.72;38.48
25350;BME280;13302;48.796;11.978;2023-04-09T08:44:06;97580.66;;;8.78;38.46
25350;BME280;13302;48.796;11.978;2023-04-09T08:46:53;97586.34;;;8.82;38.51
25350;BME280;13302;48.796;11.978;2023-04-09T08:49:43;97592.06;;;8.85;38.34
25350;BME280;13302;48.796;11.978;2023-04-09T08:52:34;97603.25;;;8.89;38.25
25350;BME280;13302;48.796;11.978;2023-04-09T08:55:21;97595.13;;;8.92;37.92
25350;BME280;13302;48.796;11.978;2023-04-09T08:58:08;97601.63;;;8.96;38.22
25350;BME280;13302;48.796;11.978;2023-04-09T09:00:58;97602.44;;;8.97;37.88
25350;BME280;13302;48.796;11.978;2023-04-09T09:03:56;97603.72;;;8.99;37.82
25350;BME280;13302;48.796;11.978;2023-04-09T09:06:44;97592.41;;;9.01;37.74
25350;BME280;13302;48.796;11.978;2023-04-09T09:09:31;97598.38;;;9.03;37.46
25350;BME280;13302;48.796;11.978;2023-04-09T09:12:40;97591.75;;;9.04;37.72
25350;BME280;13302;48.796;11.978;2023-04-09T09:15:28;97591.91;;;9.07;37.65
25350;BME280;13302;48.796;11.978;2023-04-09T09:18:16;97594.00;;;9.10;37.84
25350;BME280;13302;48.796;11.978;2023-04-09T09:21:14;97595.63;;;9.11;37.75
25350;BME280;13302;48.796;11.978;2023-04-09T09:24:15;97596.94;;;9.14;37.17
25350;BME280;13302;48.796;11.978;2023-04-09T09:27:02;97596.28;;;9.17;37.43
25350;BME280;13302;48.796;11.978;2023-04-09T09:29:49;97606.66;;;9.20;37.39
25350;BME280;13302;48.796;11.978;2023-04-09T09:32:37;97601.50;;;9.18;37.12
25350;BME280;13302;48.796;11.978;2023-04-09T09:35:24;97595.63;;;9.20;36.89
25350;BME280;13302;48.796;11.978;2023-04-09T09:38:12;97597.59;;;9.19;37.12
25350;BME280;13302;48.796;11.978;2023-04-09T09:41:15;97595.47;;;9.16;37.23
25350;BME280;13302;48.796;11.978;2023-04-09T09:44:03;97591.25;;;9.19;37.02
25350;BME280;13302;48.796;11.978;2023-04-09T09:46:53;97600.84;;;9.21;36.83
25350;BME280;13302;48.796;11.978;2023-04-09T09:49:40;97592.56;;;9.21;36.96
25350;BME280;13302;48.796;11.978;2023-04-09T09:52:27;97595.47;;;9.25;36.93
25350;BME280;13302;48.796;11.978;2023-04-09T09:55:17;97592.06;;;9.28;36.71
25350;BME280;13302;48.796;11.978;2023-04-09T09:58:11;97595.31;;;9.30;37.01
25350;BME280;13302;48.796;11.978;2023-04-09T10:01:07;97589.97;;;9.34;37.08
25350;BME280;13302;48.796;11.978;2023-04-09T10:03:55;97592.88;;;9.37;36.89
25350;BME280;13302;48.796;11.978;2023-04-09T10:06:47;97599.38;;;9.41;36.94
25350;BME280;13302;48.796;11.978;2023-04-09T10:09:41;97589.97;;;9.42;36.70
25350;BME280;13302;48.796;11.978;2023-04-09T10:12:31;97588.19;;;9.46;36.89
25350;BME280;13302;48.796;11.978;2023-04-09T10:15:19;97593.34;;;9.48;36.73
25350;BME280;13302;48.796;11.978;2023-04-09T10:18:07;97589.47;;;9.49;36.91
25350;BME280;13302;48.796;11.978;2023-04-09T10:21:00;97587.50;;;9.49;36.91
25350;BME280;13302;48.796;11.978;2023-04-09T10:23:49;97593.53;;;9.51;36.80
25350;BME280;13302;48.796;11.978;2023-04-09T10:26:42;97586.03;;;9.52;36.69
25350;BME280;13302;48.796;11.978;2023-04-09T10:29:30;97581.03;;;9.54;36.61
25350;BME280;13302;48.796;11.978;2023-04-09T10:32:19;97577.94;;;9.55;36.83
25350;BME280;13302;48.796;11.978;2023-04-09T10:35:08;97583.16;;;9.57;36.57
25350;BME280;13302;48.796;11.978;2023-04-09T10:37:55;97593.88;;;9.58;36.95
25350;BME280;13302;48.796;11.978;2023-04-09T10:40:49;97585.59;;;9.58;36.82
25350;BME280;13302;48.796;11.978;2023-04-09T10:43:36;97597.09;;;9.60;36.71
25350;BME280;13302;48.796;11.978;2023-04-09T10:46:28;97592.75;;;9.59;36.41
25350;BME280;13302;48.796;11.978;2023-04-09T10:52:09;97591.28;;;9.62;36.42
25350;BME280;13302;48.796;11.978;2023-04-09T10:54:58;97587.03;;;9.64;36.15
25350;BME280;13302;48.796;11.978;2023-04-09T10:57:45;97589.16;;;9.67;36.23
25350;BME280;13302;48.796;11.978;2023-04-09T11:00:36;97588.81;;;9.69;36.52
25350;BME280;13302;48.796;11.978;2023-04-09T11:03:25;97590.28;;;9.75;36.59
25350;BME280;13302;48.796;11.978;2023-04-09T11:06:14;97583.78;;;9.80;36.21
25350;BME280;13302;48.796;11.978;2023-04-09T11:09:05;97574.00;;;9.82;36.39
25350;BME280;13302;48.796;11.978;2023-04-09T11:11:52;97564.59;;;9.83;36.23
25350;BME280;13302;48.796;11.978;2023-04-09T11:14:39;97569.94;;;9.88;36.45
25350;BME280;13302;48.796;11.978;2023-04-09T11:17:26;97562.94;;;9.91;36.28
25350;BME280;13302;48.796;11.978;2023-04-09T11:20:18;97568.28;;;9.96;36.42
25350;BME280;13302;48.796;11.978;2023-04-09T11:23:06;97563.25;;;9.98;36.41
25350;BME280;13302;48.796;11.978;2023-04-09T11:25:54;97569.72;;;10.02;36.62
25350;BME280;13302;48.796;11.978;2023-04-09T11:28:42;97567.59;;;10.07;36.64
25350;BME280;13302;48.796;11.978;2023-04-09T11:31:29;97571.19;;;10.08;36.52
25350;BME280;13302;48.796;11.978;2023-04-09T11:34:16;97564.31;;;10.14;36.49
25350;BME280;13302;48.796;11.978;2023-04-09T11:37:03;97561.22;;;10.16;36.33
25350;BME280;13302;48.796;11.978;2023-04-09T11:39:54;97546.88;;;10.22;36.07
25350;BME280;13302;48.796;11.978;2023-04-09T11:42:45;97555.31;;;10.26;35.97
25350;BME280;13302;48.796;11.978;2023-04-09T11:45:32;97549.97;;;10.29;36.02
25350;BME280;13302;48.796;11.978;2023-04-09T11:48:19;97550.91;;;10.33;36.07
25350;BME280;13302;48.796;11.978;2023-04-09T11:51:09;97555.41;;;10.38;35.82
25350;BME280;13302;48.796;11.978;2023-04-09T11:54:00;97554.78;;;10.41;35.99
25350;BME280;13302;48.796;11.978;2023-04-09T11:56:48;97560.91;;;10.46;35.97
25350;BME280;13302;48.796;11.978;2023-04-09T11:59:41;97560.09;;;10.46;35.61
25350;BME280;13302;48.796;11.978;2023-04-09T12:02:29;97552.28;;;10.48;35.89
25350;BME280;13302;48.796;11.978;2023-04-09T12:05:21;97555.19;;;10.51;35.82
25350;BME280;13302;48.796;11.978;2023-04-09T12:08:08;97557.28;;;10.54;35.54
25350;BME280;13302;48.796;11.978;2023-04-09T12:10:55;97563.31;;;10.56;35.40
25350;BME280;13302;48.796;11.978;2023-04-09T12:13:45;97555.19;;;10.60;35.49
25350;BME280;13302;48.796;11.978;2023-04-09T12:16:35;97559.22;;;10.63;35.66
25350;BME280;13302;48.796;11.978;2023-04-09T12:19:24;97555.81;;;10.66;35.20
25350;BME280;13302;48.796;11.978;2023-04-09T12:22:11;97554.84;;;10.62;35.15
25350;BME280;13302;48.796;11.978;2023-04-09T12:24:58;97562.78;;;10.63;35.10
25350;BME280;13302;48.796;11.978;2023-04-09T12:27:45;97566.38;;;10.64;35.03
25350;BME280;13302;48.796;11.978;2023-04-09T12:30:32;97564.44;;;10.64;35.13
25350;BME280;13302;48.796;11.978;2023-04-09T12:33:20;97562.47;;;10.65;35.07
25350;BME280;13302;48.796;11.978;2023-04-09T12:36:07;97557.63;;;10.62;35.19
25350;BME280;13302;48.796;11.978;2023-04-09T12:38:54;97554.03;;;10.61;35.00
25350;BME280;13302;48.796;11.978;2023-04-09T12:41:41;97554.38;;;10.59;35.13
25350;BME280;13302;48.796;11.978;2023-04-09T12:44:28;97546.88;;;10.60;35.52
25350;BME280;13302;48.796;11.978;2023-04-09T12:47:16;97544.94;;;10.61;35.20
25350;BME280;13302;48.796;11.978;2023-04-09T12:50:03;97540.34;;;10.65;35.52
25350;BME280;13302;48.796;11.978;2023-04-09T12:52:50;97539.34;;;10.69;35.46
25350;BME280;13302;48.796;11.978;2023-04-09T12:55:37;97538.81;;;10.76;35.44
25350;BME280;13302;48.796;11.978;2023-04-09T12:58:27;97536.19;;;10.79;35.73
25350;BME280;13302;48.796;11.978;2023-04-09T13:01:14;97533.56;;;10.83;35.66
25350;BME280;13302;48.796;11.978;2023-04-09T13:04:01;97531.41;;;10.88;35.74
25350;BME280;13302;48.796;11.978;2023-04-09T13:06:48;97519.47;;;10.96;35.58
25350;BME280;13302;48.796;11.978;2023-04-09T13:09:35;97528.25;;;10.98;35.68
25350;BME280;13302;48.796;11.978;2023-04-09T13:12:23;97521.16;;;11.10;35.71
25350;BME280;13302;48.796;11.978;2023-04-09T13:15:10;97515.75;;;11.13;35.40
25350;BME280;13302;48.796;11.978;2023-04-09T13:17:58;97517.97;;;11.20;35.46
25350;BME280;13302;48.796;11.978;2023-04-09T13:20:45;97519.38;;;11.26;35.23
25350;BME280;13302;48.796;11.978;2023-04-09T13:23:32;97518.03;;;11.32;34.95
25350;BME280;13302;48.796;11.978;2023-04-09T13:26:19;97521.72;;;11.36;34.66
25350;BME280;13302;48.796;11.978;2023-04-09T13:29:06;97519.22;;;11.43;34.66
25350;BME280;13302;48.796;11.978;2023-04-09T13:31:57;97510.69;;;11.48;34.80
25350;BME280;13302;48.796;11.978;2023-04-09T13:34:44;97510.16;;;11.55;34.33
25350;BME280;13302;48.796;11.978;2023-04-09T13:37:32;97505.69;;;11.62;34.55
25350;BME280;13302;48.796;11.978;2023-04-09T13:40:19;97507.75;;;11.65;34.34
25350;BME280;13302;48.796;11.978;2023-04-09T13:43:06;97495.31;;;11.71;34.23
25350;BME280;13302;48.796;11.978;2023-04-09T13:45:53;97500.66;;;11.76;34.29
25350;BME280;13302;48.796;11.978;2023-04-09T13:48:40;97493.59;;;11.79;34.01
25350;BME280;13302;48.796;11.978;2023-04-09T13:51:29;97489.69;;;11.80;33.65
25350;BME280;13302;48.796;11.978;2023-04-09T13:54:17;97488.19;;;11.82;33.52
25350;BME280;13302;48.796;11.978;2023-04-09T13:57:04;97489.47;;;11.85;33.53
25350;BME280;13302;48.796;11.978;2023-04-09T13:59:51;97493.50;;;11.87;33.85
25350;BME280;13302;48.796;11.978;2023-04-09T14:02:38;97477.34;;;11.89;33.59
25350;BME280;13302;48.796;11.978;2023-04-09T14:05:25;97480.47;;;11.88;33.11
25350;BME280;13302;48.796;11.978;2023-04-09T14:08:13;97481.50;;;11.95;33.18
25350;BME280;13302;48.796;11.978;2023-04-09T14:11:00;97482.44;;;12.00;32.92
25350;BME280;13302;48.796;11.978;2023-04-09T14:13:47;97475.03;;;12.04;32.95
25350;BME280;13302;48.796;11.978;2023-04-09T14:16:34;97481.84;;;12.06;33.07
25350;BME280;13302;48.796;11.978;2023-04-09T14:19:22;97482.00;;;12.10;32.92
25350;BME280;13302;48.796;11.978;2023-04-09T14:22:09;97475.16;;;12.07;32.62
25350;BME280;13302;48.796;11.978;2023-04-09T14:24:57;97480.47;;;12.12;32.47
25350;BME280;13302;48.796;11.978;2023-04-09T14:27:45;97477.72;;;12.12;32.64
25350;BME280;13302;48.796;11.978;2023-04-09T14:30:32;97479.78;;;12.15;32.21
25350;BME280;13302;48.796;11.978;2023-04-09T14:33:19;97478.97;;;12.15;32.37
25350;BME280;13302;48.796;11.978;2023-04-09T14:36:06;97477.38;;;12.14;32.16
25350;BME280;13302;48.796;11.978;2023-04-09T14:38:53;97476.56;;;12.13;32.15
25350;BME280;13302;48.796;11.978;2023-04-09T14:41:44;97482.00;;;12.10;32.34
25350;BME280;13302;48.796;11.978;2023-04-09T14:44:31;97479.22;;;12.10;32.26
25350;BME280;13302;48.796;11.978;2023-04-09T14:47:18;97477.25;;;12.10;32.07
25350;BME280;13302;48.796;11.978;2023-04-09T14:50:06;97477.59;;;12.09;31.87
25350;BME280;13302;48.796;11.978;2023-04-09T14:52:53;97474.00;;;12.08;32.07
25350;BME280;13302;48.796;11.978;2023-04-09T14:55:40;97472.88;;;12.09;32.07
25350;BME280;13302;48.796;11.978;2023-04-09T14:58:27;97472.88;;;12.09;31.88
25350;BME280;13302;48.796;11.978;2023-04-09T15:01:14;97480.38;;;12.09;31.94